PWSweather.com
Personal Weather Stations
Station Observations
RIORANCHO
Corrales Heights, Rio Rancho, NM 87124

Corrales HeightsRio Rancho, NM 87124

Lat: 35.241928, Lon: -106.647095

Elevation: 5297

Station Type: Davis Vantage Pro 2 Plus

http://www.weatherriorancho.com

High Low Average
Temperature 63.3°F17.4°C 33.9°F1.1°C 47.6°F8.7°C
Dew Point 22.4°F-5.3°C 17.1°F-8.3°C 20.1°F-6.6°C
Winds 8.1 mph 13.0 kmh Calm Calm 2.0 mph SW3.2 kmh SW
Wind Gusts 13.8 mph22.2 kmh -- 4.0 mph6.4 kmh
Humidity 55% 19% 35%
Pressure 30.32 in1026.8 mb 30.12 in1020.0 mb -
Precipitation 0.00 in0.0 mm - -
Hour Temp Dew Point Humidity Winds Wind Gusts Pressure Precip Precip Rate Daily Precip Total
12:00 AM 47.9°F8.8°C 21.5°F-5.8°C 35% 2.3 mph N3.7 kmh N 6.9 mph11.1 kmh 30.23 in1023.7 mb - 0.00 in0.0 mm 0.00 in0.0 mm
12:10 AM 47.3°F8.5°C 21.0°F-6.1°C 35% 10.4 mph N16.7 kmh N 13.8 mph22.2 kmh 30.24 in1024.0 mb - 0.00 in0.0 mm 0.00 in0.0 mm
12:20 AM 47.0°F8.3°C 20.7°F-6.3°C 35% 5.8 mph N9.3 kmh N 10.4 mph16.7 kmh 30.26 in1024.7 mb - 0.00 in0.0 mm 0.00 in0.0 mm
12:30 AM 47.0°F8.3°C 20.7°F-6.3°C 35% 8.1 mph N13.0 kmh N 13.8 mph22.2 kmh 30.26 in1024.7 mb - 0.00 in0.0 mm 0.00 in0.0 mm
12:40 AM 46.9°F8.3°C 20.7°F-6.3°C 35% 5.8 mph N9.3 kmh N 12.7 mph20.4 kmh 30.26 in1024.7 mb - 0.00 in0.0 mm 0.00 in0.0 mm
12:50 AM 46.7°F8.2°C 21.1°F-6.1°C 36% 4.6 mph NNE7.4 kmh NNE 6.9 mph11.1 kmh 30.26 in1024.7 mb - 0.00 in0.0 mm 0.00 in0.0 mm
01:00 AM 46.2°F7.9°C 20.6°F-6.3°C 36% 6.9 mph 11.1 kmh 12.7 mph20.4 kmh 30.26 in1024.7 mb - 0.00 in0.0 mm 0.00 in0.0 mm
01:10 AM 45.8°F7.7°C 20.9°F-6.2°C 37% 8.1 mph N13.0 kmh N 13.8 mph22.2 kmh 30.26 in1024.7 mb - 0.00 in0.0 mm 0.00 in0.0 mm
01:20 AM 45.3°F7.4°C 20.5°F-6.4°C 37% 5.8 mph N9.3 kmh N 11.5 mph18.5 kmh 30.25 in1024.4 mb - 0.00 in0.0 mm 0.00 in0.0 mm
01:30 AM 44.8°F7.1°C 20.7°F-6.3°C 38% 4.6 mph N7.4 kmh N 8.1 mph13.0 kmh 30.26 in1024.7 mb - 0.00 in0.0 mm 0.00 in0.0 mm
01:40 AM 44.4°F6.9°C 20.3°F-6.5°C 38% 3.5 mph NNW5.6 kmh NNW 8.1 mph13.0 kmh 30.26 in1024.7 mb - 0.00 in0.0 mm 0.00 in0.0 mm
01:50 AM 44.1°F6.7°C 20.7°F-6.3°C 39% 3.5 mph N5.6 kmh N 8.1 mph13.0 kmh 30.25 in1024.4 mb - 0.00 in0.0 mm 0.00 in0.0 mm
02:00 AM 43.9°F6.6°C 21.1°F-6.1°C 40% 6.9 mph N11.1 kmh N 10.4 mph16.7 kmh 30.25 in1024.4 mb - 0.00 in0.0 mm 0.00 in0.0 mm
02:10 AM 43.7°F6.5°C 20.9°F-6.2°C 40% 3.5 mph N5.6 kmh N 5.8 mph9.3 kmh 30.25 in1024.4 mb - 0.00 in0.0 mm 0.00 in0.0 mm
02:20 AM 43.3°F6.3°C 20.5°F-6.4°C 40% 3.5 mph NNW5.6 kmh NNW 5.8 mph9.3 kmh 30.25 in1024.4 mb - 0.00 in0.0 mm 0.00 in0.0 mm
02:30 AM 42.8°F6.0°C 20.7°F-6.3°C 41% 3.5 mph NNW5.6 kmh NNW 9.2 mph14.8 kmh 30.26 in1024.7 mb - 0.00 in0.0 mm 0.00 in0.0 mm
02:40 AM 42.3°F5.7°C 20.9°F-6.2°C 42% 4.6 mph NNW7.4 kmh NNW 6.9 mph11.1 kmh 30.26 in1024.7 mb - 0.00 in0.0 mm 0.00 in0.0 mm
02:50 AM 42.0°F5.6°C 20.5°F-6.4°C 42% 4.6 mph N7.4 kmh N 9.2 mph14.8 kmh 30.26 in1024.7 mb - 0.00 in0.0 mm 0.00 in0.0 mm
03:00 AM 41.7°F5.4°C 20.9°F-6.2°C 43% 2.3 mph NNW3.7 kmh NNW 9.2 mph14.8 kmh 30.26 in1024.7 mb - 0.00 in0.0 mm 0.00 in0.0 mm
03:10 AM 41.4°F5.2°C 20.5°F-6.4°C 43% 1.2 mph NNW1.9 kmh NNW 6.9 mph11.1 kmh 30.26 in1024.7 mb - 0.00 in0.0 mm 0.00 in0.0 mm
03:20 AM 41.0°F5.0°C 20.2°F-6.6°C 43% Calm Calm 2.3 mph3.7 kmh 30.27 in1025.1 mb - 0.00 in0.0 mm 0.00 in0.0 mm
03:30 AM 40.6°F4.8°C 20.4°F-6.4°C 44% 3.5 mph N5.6 kmh N 8.1 mph13.0 kmh 30.27 in1025.1 mb - 0.00 in0.0 mm 0.00 in0.0 mm
03:40 AM 40.1°F4.5°C 20.4°F-6.4°C 45% 2.3 mph N3.7 kmh N 8.1 mph13.0 kmh 30.27 in1025.1 mb - 0.00 in0.0 mm 0.00 in0.0 mm
03:50 AM 39.8°F4.3°C 20.1°F-6.6°C 45% 3.5 mph NNW5.6 kmh NNW 4.6 mph7.4 kmh 30.27 in1025.1 mb - 0.00 in0.0 mm 0.00 in0.0 mm
04:00 AM 39.5°F4.2°C 20.4°F-6.4°C 46% 2.3 mph NNW3.7 kmh NNW 3.5 mph5.6 kmh 30.27 in1025.1 mb - 0.00 in0.0 mm 0.00 in0.0 mm
04:10 AM 39.2°F4.0°C 20.1°F-6.6°C 46% 1.2 mph NNW1.9 kmh NNW 6.9 mph11.1 kmh 30.27 in1025.1 mb - 0.00 in0.0 mm 0.00 in0.0 mm
04:20 AM 38.7°F3.7°C 19.7°F-6.8°C 46% 1.2 mph NW1.9 kmh NW 4.6 mph7.4 kmh 30.27 in1025.1 mb - 0.00 in0.0 mm 0.00 in0.0 mm
04:30 AM 38.3°F3.5°C 20.3°F-6.5°C 48% 4.6 mph NW7.4 kmh NW 6.9 mph11.1 kmh 30.27 in1025.1 mb - 0.00 in0.0 mm 0.00 in0.0 mm
04:40 AM 38.4°F3.6°C 20.4°F-6.4°C 48% 2.3 mph NW3.7 kmh NW 3.5 mph5.6 kmh 30.27 in1025.1 mb - 0.00 in0.0 mm 0.00 in0.0 mm
04:50 AM 38.3°F3.5°C 20.3°F-6.5°C 48% 2.3 mph NW3.7 kmh NW 5.8 mph9.3 kmh 30.27 in1025.1 mb - 0.00 in0.0 mm 0.00 in0.0 mm
05:00 AM 38.3°F3.5°C 20.3°F-6.5°C 48% 3.5 mph NNW5.6 kmh NNW 8.1 mph13.0 kmh 30.26 in1024.7 mb - 0.00 in0.0 mm 0.00 in0.0 mm
05:10 AM 38.1°F3.4°C 20.6°F-6.3°C 49% 1.2 mph NNW1.9 kmh NNW 9.2 mph14.8 kmh 30.26 in1024.7 mb - 0.00 in0.0 mm 0.00 in0.0 mm
05:20 AM 37.8°F3.2°C 20.3°F-6.5°C 49% 2.3 mph N3.7 kmh N 5.8 mph9.3 kmh 30.26 in1024.7 mb - 0.00 in0.0 mm 0.00 in0.0 mm
05:30 AM 37.3°F2.9°C 20.4°F-6.4°C 50% 2.3 mph N3.7 kmh N 6.9 mph11.1 kmh 30.26 in1024.7 mb - 0.00 in0.0 mm 0.00 in0.0 mm
05:40 AM 36.8°F2.7°C 19.9°F-6.7°C 50% 3.5 mph N5.6 kmh N 5.8 mph9.3 kmh 30.26 in1024.7 mb - 0.00 in0.0 mm 0.00 in0.0 mm
05:50 AM 36.7°F2.6°C 20.2°F-6.6°C 51% 1.2 mph N1.9 kmh N 6.9 mph11.1 kmh 30.27 in1025.1 mb - 0.00 in0.0 mm 0.00 in0.0 mm
06:00 AM 36.8°F2.7°C 20.3°F-6.5°C 51% 3.5 mph N5.6 kmh N 6.9 mph11.1 kmh 30.27 in1025.1 mb - 0.00 in0.0 mm 0.00 in0.0 mm
06:10 AM 36.8°F2.7°C 20.4°F-6.4°C 51% 1.2 mph N1.9 kmh N 3.5 mph5.6 kmh 30.27 in1025.1 mb - 0.00 in0.0 mm 0.00 in0.0 mm
06:20 AM 36.6°F2.6°C 20.2°F-6.6°C 51% 1.2 mph 1.9 kmh 2.3 mph3.7 kmh 30.27 in1025.1 mb - 0.00 in0.0 mm 0.00 in0.0 mm
06:30 AM 36.5°F2.5°C 20.0°F-6.7°C 51% Calm Calm 2.3 mph3.7 kmh 30.27 in1025.1 mb - 0.00 in0.0 mm 0.00 in0.0 mm
06:40 AM 36.2°F2.3°C 20.2°F-6.6°C 52% Calm Calm 2.3 mph3.7 kmh 30.27 in1025.1 mb - 0.00 in0.0 mm 0.00 in0.0 mm
06:50 AM 35.8°F2.1°C 19.9°F-6.7°C 52% 3.5 mph NNW5.6 kmh NNW 5.8 mph9.3 kmh 30.27 in1025.1 mb - 0.00 in0.0 mm 0.00 in0.0 mm
07:00 AM 35.4°F1.9°C 19.9°F-6.7°C 53% 2.3 mph N3.7 kmh N 3.5 mph5.6 kmh 30.28 in1025.4 mb - 0.00 in0.0 mm 0.00 in0.0 mm
07:10 AM 35.2°F1.8°C 19.8°F-6.8°C 53% 1.2 mph N1.9 kmh N 2.3 mph3.7 kmh 30.27 in1025.1 mb - 0.00 in0.0 mm 0.00 in0.0 mm
07:20 AM 35.0°F1.7°C 19.6°F-6.9°C 53% 2.3 mph N3.7 kmh N 5.8 mph9.3 kmh 30.28 in1025.4 mb - 0.00 in0.0 mm 0.00 in0.0 mm
07:30 AM 34.7°F1.5°C 19.8°F-6.8°C 54% 1.2 mph N1.9 kmh N 2.3 mph3.7 kmh 30.28 in1025.4 mb - 0.00 in0.0 mm 0.00 in0.0 mm
07:40 AM 34.6°F1.4°C 19.7°F-6.8°C 54% 5.8 mph NNW9.3 kmh NNW 8.1 mph13.0 kmh 30.28 in1025.4 mb - 0.00 in0.0 mm 0.00 in0.0 mm
07:50 AM 34.6°F1.4°C 19.6°F-6.9°C 54% 4.6 mph NNW7.4 kmh NNW 11.5 mph18.5 kmh 30.27 in1025.1 mb - 0.00 in0.0 mm 0.00 in0.0 mm
08:00 AM 34.4°F1.3°C 19.5°F-6.9°C 54% 5.8 mph NNW9.3 kmh NNW 11.5 mph18.5 kmh 30.28 in1025.4 mb - 0.00 in0.0 mm 0.00 in0.0 mm
08:10 AM 34.1°F1.2°C 19.2°F-7.1°C 54% 4.6 mph NNW7.4 kmh NNW 8.1 mph13.0 kmh 30.28 in1025.4 mb - 0.00 in0.0 mm 0.00 in0.0 mm
08:20 AM 34.1°F1.2°C 19.6°F-6.9°C 55% 2.3 mph NNW3.7 kmh NNW 3.5 mph5.6 kmh 30.29 in1025.7 mb - 0.00 in0.0 mm 0.00 in0.0 mm
08:30 AM 34.1°F1.2°C 19.6°F-6.9°C 55% Calm Calm 1.2 mph1.9 kmh 30.29 in1025.7 mb - 0.00 in0.0 mm 0.00 in0.0 mm
08:40 AM 34.1°F1.2°C 19.2°F-7.1°C 54% 1.2 mph NNW1.9 kmh NNW 3.5 mph5.6 kmh 30.29 in1025.7 mb - 0.00 in0.0 mm 0.00 in0.0 mm
08:50 AM 33.9°F1.1°C 19.4°F-7.0°C 55% 2.3 mph NNW3.7 kmh NNW 4.6 mph7.4 kmh 30.29 in1025.7 mb - 0.00 in0.0 mm 0.00 in0.0 mm
09:00 AM 34.1°F1.2°C 19.6°F-6.9°C 55% 3.5 mph NNW5.6 kmh NNW 5.8 mph9.3 kmh 30.29 in1025.7 mb - 0.00 in0.0 mm 0.00 in0.0 mm
09:10 AM 35.0°F1.7°C 19.6°F-6.9°C 53% 2.3 mph N3.7 kmh N 6.9 mph11.1 kmh 30.30 in1026.1 mb - 0.00 in0.0 mm 0.00 in0.0 mm
09:20 AM 36.2°F2.3°C 20.2°F-6.6°C 52% 1.2 mph N1.9 kmh N 3.5 mph5.6 kmh 30.30 in1026.1 mb - 0.00 in0.0 mm 0.00 in0.0 mm
09:30 AM 37.3°F2.9°C 20.4°F-6.4°C 50% Calm Calm 2.3 mph3.7 kmh 30.30 in1026.1 mb - 0.00 in0.0 mm 0.00 in0.0 mm
09:40 AM 38.5°F3.6°C 20.5°F-6.4°C 48% Calm Calm 1.2 mph1.9 kmh 30.30 in1026.1 mb - 0.00 in0.0 mm 0.00 in0.0 mm
09:50 AM 39.4°F4.1°C 20.8°F-6.2°C 47% 3.5 mph N5.6 kmh N 6.9 mph11.1 kmh 30.31 in1026.4 mb - 0.00 in0.0 mm 0.00 in0.0 mm
10:00 AM 39.8°F4.3°C 20.7°F-6.3°C 46% 2.3 mph 3.7 kmh 3.5 mph5.6 kmh 30.31 in1026.4 mb - 0.00 in0.0 mm 0.00 in0.0 mm
10:10 AM 40.5°F4.7°C 20.8°F-6.2°C 45% 3.5 mph 5.6 kmh 5.8 mph9.3 kmh 30.31 in1026.4 mb - 0.00 in0.0 mm 0.00 in0.0 mm
10:20 AM 41.2°F5.1°C 20.9°F-6.2°C 44% Calm Calm 2.3 mph3.7 kmh 30.31 in1026.4 mb - 0.00 in0.0 mm 0.00 in0.0 mm
10:30 AM 42.0°F5.6°C 21.1°F-6.1°C 43% 2.3 mph N3.7 kmh N 3.5 mph5.6 kmh 30.31 in1026.4 mb - 0.00 in0.0 mm 0.00 in0.0 mm
10:40 AM 42.8°F6.0°C 21.3°F-5.9°C 42% 1.2 mph N1.9 kmh N 2.3 mph3.7 kmh 30.32 in1026.8 mb - 0.00 in0.0 mm 0.00 in0.0 mm
10:50 AM 43.7°F6.5°C 21.5°F-5.8°C 41% Calm Calm 1.2 mph1.9 kmh 30.31 in1026.4 mb - 0.00 in0.0 mm 0.00 in0.0 mm
11:00 AM 44.6°F7.0°C 21.7°F-5.7°C 40% Calm Calm -- 30.31 in1026.4 mb - 0.00 in0.0 mm 0.00 in0.0 mm
11:10 AM 45.8°F7.7°C 21.6°F-5.8°C 38% Calm Calm -- 30.31 in1026.4 mb - 0.00 in0.0 mm 0.00 in0.0 mm
11:20 AM 47.1°F8.4°C 22.1°F-5.5°C 37% Calm Calm 1.2 mph1.9 kmh 30.30 in1026.1 mb - 0.00 in0.0 mm 0.00 in0.0 mm
11:30 AM 49.1°F9.5°C 21.9°F-5.6°C 34% Calm Calm -- 30.30 in1026.1 mb - 0.00 in0.0 mm 0.00 in0.0 mm
11:40 AM 50.5°F10.3°C 22.4°F-5.3°C 33% Calm Calm -- 30.30 in1026.1 mb - 0.00 in0.0 mm 0.00 in0.0 mm
11:50 AM 49.7°F9.8°C 21.7°F-5.7°C 33% Calm Calm -- 30.29 in1025.7 mb - 0.00 in0.0 mm 0.00 in0.0 mm
12:00 PM 50.7°F10.4°C 21.9°F-5.6°C 32% Calm Calm -- 30.29 in1025.7 mb - 0.00 in0.0 mm 0.00 in0.0 mm
12:10 PM 51.5°F10.8°C 21.8°F-5.7°C 31% Calm Calm 1.2 mph1.9 kmh 30.28 in1025.4 mb - 0.00 in0.0 mm 0.00 in0.0 mm
12:20 PM 52.4°F11.3°C 21.9°F-5.6°C 30% Calm Calm 1.2 mph1.9 kmh 30.28 in1025.4 mb - 0.00 in0.0 mm 0.00 in0.0 mm
12:30 PM 53.5°F11.9°C 22.0°F-5.6°C 29% 2.3 mph E3.7 kmh E 4.6 mph7.4 kmh 30.27 in1025.1 mb - 0.00 in0.0 mm 0.00 in0.0 mm
12:40 PM 53.6°F12.0°C 21.2°F-6.0°C 28% 2.3 mph S3.7 kmh S 4.6 mph7.4 kmh 30.27 in1025.1 mb - 0.00 in0.0 mm 0.00 in0.0 mm
12:50 PM 53.9°F12.2°C 20.6°F-6.3°C 27% 4.6 mph S7.4 kmh S 6.9 mph11.1 kmh 30.26 in1024.7 mb - 0.00 in0.0 mm 0.00 in0.0 mm
01:00 PM 54.4°F12.4°C 21.1°F-6.1°C 27% 3.5 mph SSE5.6 kmh SSE 8.1 mph13.0 kmh 30.26 in1024.7 mb - 0.00 in0.0 mm 0.00 in0.0 mm
01:10 PM 55.2°F12.9°C 20.9°F-6.2°C 26% 3.5 mph S5.6 kmh S 4.6 mph7.4 kmh 30.25 in1024.4 mb - 0.00 in0.0 mm 0.00 in0.0 mm
01:20 PM 55.9°F13.3°C 20.5°F-6.4°C 25% Calm Calm 3.5 mph5.6 kmh 30.24 in1024.0 mb - 0.00 in0.0 mm 0.00 in0.0 mm
01:30 PM 56.1°F13.4°C 19.8°F-6.8°C 24% 2.3 mph S3.7 kmh S 4.6 mph7.4 kmh 30.24 in1024.0 mb - 0.00 in0.0 mm 0.00 in0.0 mm
01:40 PM 57.6°F14.2°C 20.0°F-6.7°C 23% 2.3 mph S3.7 kmh S 9.2 mph14.8 kmh 30.23 in1023.7 mb - 0.00 in0.0 mm 0.00 in0.0 mm
01:50 PM 57.8°F14.3°C 20.2°F-6.6°C 23% 3.5 mph SE5.6 kmh SE 5.8 mph9.3 kmh 30.22 in1023.4 mb - 0.00 in0.0 mm 0.00 in0.0 mm
02:00 PM 58.3°F14.6°C 20.6°F-6.3°C 23% 3.5 mph SE5.6 kmh SE 6.9 mph11.1 kmh 30.21 in1023.0 mb - 0.00 in0.0 mm 0.00 in0.0 mm
02:10 PM 59.1°F15.1°C 20.3°F-6.5°C 22% 2.3 mph SE3.7 kmh SE 3.5 mph5.6 kmh 30.21 in1023.0 mb - 0.00 in0.0 mm 0.00 in0.0 mm
02:20 PM 59.1°F15.1°C 21.3°F-5.9°C 23% Calm Calm 4.6 mph7.4 kmh 30.20 in1022.7 mb - 0.00 in0.0 mm 0.00 in0.0 mm
02:30 PM 59.9°F15.5°C 20.9°F-6.2°C 22% 3.5 mph SE5.6 kmh SE 5.8 mph9.3 kmh 30.20 in1022.7 mb - 0.00 in0.0 mm 0.00 in0.0 mm
02:40 PM 60.1°F15.6°C 21.1°F-6.1°C 22% 2.3 mph S3.7 kmh S 4.6 mph7.4 kmh 30.19 in1022.4 mb - 0.00 in0.0 mm 0.00 in0.0 mm
02:50 PM 60.7°F15.9°C 21.6°F-5.8°C 22% 2.3 mph SE3.7 kmh SE 3.5 mph5.6 kmh 30.19 in1022.4 mb - 0.00 in0.0 mm 0.00 in0.0 mm
03:00 PM 61.2°F16.2°C 22.0°F-5.6°C 22% Calm Calm 3.5 mph5.6 kmh 30.18 in1022.0 mb - 0.00 in0.0 mm 0.00 in0.0 mm
03:10 PM 61.4°F16.3°C 22.2°F-5.4°C 22% 1.2 mph S1.9 kmh S 3.5 mph5.6 kmh 30.18 in1022.0 mb - 0.00 in0.0 mm 0.00 in0.0 mm
03:20 PM 61.4°F16.3°C 21.0°F-6.1°C 21% 1.2 mph SE1.9 kmh SE 3.5 mph5.6 kmh 30.17 in1021.7 mb - 0.00 in0.0 mm 0.00 in0.0 mm
03:30 PM 61.9°F16.6°C 21.5°F-5.8°C 21% 1.2 mph SE1.9 kmh SE 4.6 mph7.4 kmh 30.17 in1021.7 mb - 0.00 in0.0 mm 0.00 in0.0 mm
03:40 PM 62.6°F17.0°C 22.1°F-5.5°C 21% 2.3 mph SSE3.7 kmh SSE 4.6 mph7.4 kmh 30.16 in1021.3 mb - 0.00 in0.0 mm 0.00 in0.0 mm
03:50 PM 62.9°F17.2°C 21.2°F-6.0°C 20% 2.3 mph SE3.7 kmh SE 6.9 mph11.1 kmh 30.16 in1021.3 mb - 0.00 in0.0 mm 0.00 in0.0 mm
04:00 PM 62.5°F16.9°C 22.0°F-5.6°C 21% 2.3 mph SSE3.7 kmh SSE 5.8 mph9.3 kmh 30.15 in1021.0 mb - 0.00 in0.0 mm 0.00 in0.0 mm
04:10 PM 62.9°F17.2°C 21.1°F-6.1°C 20% 1.2 mph S1.9 kmh S 5.8 mph9.3 kmh 30.15 in1021.0 mb - 0.00 in0.0 mm 0.00 in0.0 mm
04:20 PM 63.2°F17.3°C 21.4°F-5.9°C 20% 1.2 mph SE1.9 kmh SE 3.5 mph5.6 kmh 30.15 in1021.0 mb - 0.00 in0.0 mm 0.00 in0.0 mm
04:30 PM 63.2°F17.3°C 20.2°F-6.6°C 19% 2.3 mph ESE3.7 kmh ESE 3.5 mph5.6 kmh 30.14 in1020.7 mb - 0.00 in0.0 mm 0.00 in0.0 mm
04:40 PM 63.3°F17.4°C 20.3°F-6.5°C 19% 1.2 mph S1.9 kmh S 3.5 mph5.6 kmh 30.14 in1020.7 mb - 0.00 in0.0 mm 0.00 in0.0 mm
04:50 PM 63.3°F17.4°C 20.3°F-6.5°C 19% 1.2 mph S1.9 kmh S 3.5 mph5.6 kmh 30.14 in1020.7 mb - 0.00 in0.0 mm 0.00 in0.0 mm
05:00 PM 63.1°F17.3°C 20.1°F-6.6°C 19% 2.3 mph SE3.7 kmh SE 5.8 mph9.3 kmh 30.13 in1020.3 mb - 0.00 in0.0 mm 0.00 in0.0 mm
05:10 PM 62.6°F17.0°C 19.7°F-6.8°C 19% 4.6 mph SE7.4 kmh SE 9.2 mph14.8 kmh 30.13 in1020.3 mb - 0.00 in0.0 mm 0.00 in0.0 mm
05:20 PM 62.3°F16.8°C 20.7°F-6.3°C 20% 2.3 mph SSE3.7 kmh SSE 5.8 mph9.3 kmh 30.13 in1020.3 mb - 0.00 in0.0 mm 0.00 in0.0 mm
05:30 PM 62.0°F16.7°C 20.4°F-6.4°C 20% 2.3 mph SE3.7 kmh SE 9.2 mph14.8 kmh 30.13 in1020.3 mb - 0.00 in0.0 mm 0.00 in0.0 mm
05:40 PM 61.8°F16.6°C 20.3°F-6.5°C 20% 2.3 mph SE3.7 kmh SE 5.8 mph9.3 kmh 30.12 in1020.0 mb - 0.00 in0.0 mm 0.00 in0.0 mm
05:50 PM 61.4°F16.3°C 18.7°F-7.4°C 19% 2.3 mph SE3.7 kmh SE 4.6 mph7.4 kmh 30.12 in1020.0 mb - 0.00 in0.0 mm 0.00 in0.0 mm
06:00 PM 61.2°F16.2°C 19.8°F-6.8°C 20% Calm Calm 1.2 mph1.9 kmh 30.12 in1020.0 mb - 0.00 in0.0 mm 0.00 in0.0 mm
06:10 PM 60.9°F16.1°C 19.5°F-6.9°C 20% 1.2 mph SSE1.9 kmh SSE 1.2 mph1.9 kmh 30.12 in1020.0 mb - 0.00 in0.0 mm 0.00 in0.0 mm
06:20 PM 60.5°F15.8°C 19.2°F-7.1°C 20% Calm Calm 1.2 mph1.9 kmh 30.12 in1020.0 mb - 0.00 in0.0 mm 0.00 in0.0 mm
06:30 PM 60.0°F15.6°C 19.9°F-6.7°C 21% Calm Calm -- 30.12 in1020.0 mb - 0.00 in0.0 mm 0.00 in0.0 mm
06:40 PM 59.6°F15.3°C 20.7°F-6.3°C 22% Calm Calm 2.3 mph3.7 kmh 30.12 in1020.0 mb - 0.00 in0.0 mm 0.00 in0.0 mm
06:50 PM 59.0°F15.0°C 21.2°F-6.0°C 23% Calm Calm 1.2 mph1.9 kmh 30.12 in1020.0 mb - 0.00 in0.0 mm 0.00 in0.0 mm
07:00 PM 58.6°F14.8°C 20.9°F-6.2°C 23% Calm Calm 1.2 mph1.9 kmh 30.13 in1020.3 mb - 0.00 in0.0 mm 0.00 in0.0 mm
07:10 PM 58.4°F14.7°C 20.7°F-6.3°C 23% Calm Calm 1.2 mph1.9 kmh 30.13 in1020.3 mb - 0.00 in0.0 mm 0.00 in0.0 mm
07:20 PM 58.1°F14.5°C 20.4°F-6.4°C 23% Calm Calm -- 30.13 in1020.3 mb - 0.00 in0.0 mm 0.00 in0.0 mm
07:30 PM 57.7°F14.3°C 20.1°F-6.6°C 23% Calm Calm 1.2 mph1.9 kmh 30.13 in1020.3 mb - 0.00 in0.0 mm 0.00 in0.0 mm
07:40 PM 56.8°F13.8°C 20.3°F-6.5°C 24% Calm Calm -- 30.13 in1020.3 mb - 0.00 in0.0 mm 0.00 in0.0 mm
07:50 PM 56.3°F13.5°C 19.9°F-6.7°C 24% Calm Calm -- 30.14 in1020.7 mb - 0.00 in0.0 mm 0.00 in0.0 mm
08:00 PM 55.1°F12.8°C 19.8°F-6.8°C 25% Calm Calm -- 30.14 in1020.7 mb - 0.00 in0.0 mm 0.00 in0.0 mm
08:10 PM 53.9°F12.2°C 18.8°F-7.3°C 25% Calm Calm -- 30.14 in1020.7 mb - 0.00 in0.0 mm 0.00 in0.0 mm
08:20 PM 53.0°F11.7°C 19.0°F-7.2°C 26% Calm Calm -- 30.14 in1020.7 mb - 0.00 in0.0 mm 0.00 in0.0 mm
08:30 PM 51.8°F11.0°C 18.8°F-7.3°C 27% Calm Calm -- 30.14 in1020.7 mb - 0.00 in0.0 mm 0.00 in0.0 mm
08:40 PM 51.1°F10.6°C 18.3°F-7.6°C 27% Calm Calm -- 30.14 in1020.7 mb - 0.00 in0.0 mm 0.00 in0.0 mm
08:50 PM 50.5°F10.3°C 18.6°F-7.4°C 28% Calm Calm -- 30.14 in1020.7 mb - 0.00 in0.0 mm 0.00 in0.0 mm
09:00 PM 50.0°F10.0°C 18.1°F-7.7°C 28% Calm Calm -- 30.14 in1020.7 mb - 0.00 in0.0 mm 0.00 in0.0 mm
09:10 PM 49.0°F9.4°C 18.1°F-7.7°C 29% Calm Calm -- 30.14 in1020.7 mb - 0.00 in0.0 mm 0.00 in0.0 mm
09:20 PM 48.2°F9.0°C 18.2°F-7.7°C 30% Calm Calm -- 30.14 in1020.7 mb - 0.00 in0.0 mm 0.00 in0.0 mm
09:30 PM 47.6°F8.7°C 17.6°F-8.0°C 30% Calm Calm -- 30.14 in1020.7 mb - 0.00 in0.0 mm 0.00 in0.0 mm
09:40 PM 47.2°F8.4°C 18.0°F-7.8°C 31% Calm Calm -- 30.14 in1020.7 mb - 0.00 in0.0 mm 0.00 in0.0 mm
09:50 PM 46.5°F8.1°C 17.5°F-8.1°C 31% Calm Calm -- 30.14 in1020.7 mb - 0.00 in0.0 mm 0.00 in0.0 mm
10:00 PM 46.1°F7.8°C 17.1°F-8.3°C 31% Calm Calm 3.5 mph5.6 kmh 30.14 in1020.7 mb - 0.00 in0.0 mm 0.00 in0.0 mm
10:10 PM 46.1°F7.8°C 17.8°F-7.9°C 32% Calm Calm 1.2 mph1.9 kmh 30.14 in1020.7 mb - 0.00 in0.0 mm 0.00 in0.0 mm
10:20 PM 46.0°F7.8°C 17.7°F-7.9°C 32% Calm Calm 1.2 mph1.9 kmh 30.14 in1020.7 mb - 0.00 in0.0 mm 0.00 in0.0 mm
10:30 PM 45.8°F7.7°C 17.6°F-8.0°C 32% Calm Calm 1.2 mph1.9 kmh 30.14 in1020.7 mb - 0.00 in0.0 mm 0.00 in0.0 mm
10:40 PM 45.4°F7.4°C 17.2°F-8.2°C 32% Calm Calm 1.2 mph1.9 kmh 30.14 in1020.7 mb - 0.00 in0.0 mm 0.00 in0.0 mm
10:50 PM 44.9°F7.2°C 17.5°F-8.1°C 33% Calm Calm -- 30.14 in1020.7 mb - 0.00 in0.0 mm 0.00 in0.0 mm
11:00 PM 44.5°F6.9°C 17.1°F-8.3°C 33% Calm Calm -- 30.14 in1020.7 mb - 0.00 in0.0 mm 0.00 in0.0 mm
11:10 PM 44.2°F6.8°C 17.6°F-8.0°C 34% Calm Calm -- 30.14 in1020.7 mb - 0.00 in0.0 mm 0.00 in0.0 mm
11:20 PM 44.1°F6.7°C 17.5°F-8.1°C 34% Calm Calm -- 30.14 in1020.7 mb - 0.00 in0.0 mm 0.00 in0.0 mm
11:30 PM 43.8°F6.6°C 17.9°F-7.8°C 35% Calm Calm -- 30.14 in1020.7 mb - 0.00 in0.0 mm 0.00 in0.0 mm
11:40 PM 43.8°F6.6°C 18.6°F-7.4°C 36% Calm Calm -- 30.14 in1020.7 mb - 0.00 in0.0 mm 0.00 in0.0 mm
11:50 PM 43.8°F6.6°C 19.2°F-7.1°C 37% Calm Calm -- 30.14 in1020.7 mb - 0.00 in0.0 mm 0.00 in0.0 mm